BOW weather

Bartow Executive Airport
Bartow, Florida, United States

Public forecast

Using degrees Fahrenheit for public forecast. Weather courtesy of forecast.io.

Current aviation weather report (METAR) for Bartow Executive Airport

Retrieved 2019/12/06 02:35 UTC (16 minutes ago):

KBOW 060235Z AUTO 00000KT 10SM CLR 09/07 A3018 RMK AO2

Closest aviation forecast (TAF) to Bartow Executive Airport

Closest forecast is Lakeland Linder International Airport, 12.8 nm (23.6 km) WNW. Retrieved 2019-12-06 00:22 UTC (2 hours ago):

TAF KLAL 052320Z 0600/0624 VRB03KT P6SM BKN250 FM061400 08004KT P6SM SCT250 FM061800 19006KT P6SM FEW250 FM062100 26007KT P6SM FEW250 AMD NOT SKED 0602/0611